sensor_id;sensor_type;location;lat;lon;timestamp;pressure;altitude;pressure_sealevel;temperature;humidity
53908;BME280;40469;47.998;7.794;2023-03-03T00:01:38;99219.66;;;0.66;100.00
53908;BME280;40469;47.998;7.794;2023-03-03T00:04:03;99224.91;;;0.69;100.00
53908;BME280;40469;47.998;7.794;2023-03-03T00:06:28;99219.63;;;0.65;100.00
53908;BME280;40469;47.998;7.794;2023-03-03T00:08:54;99224.75;;;0.65;100.00
53908;BME280;40469;47.998;7.794;2023-03-03T00:11:20;99214.53;;;0.66;100.00
53908;BME280;40469;47.998;7.794;2023-03-03T00:13:46;99225.63;;;0.65;100.00
53908;BME280;40469;47.998;7.794;2023-03-03T00:19:14;99227.53;;;0.71;100.00
53908;BME280;40469;47.998;7.794;2023-03-03T00:21:40;99231.28;;;0.55;100.00
53908;BME280;40469;47.998;7.794;2023-03-03T00:26:50;99225.56;;;0.38;100.00
53908;BME280;40469;47.998;7.794;2023-03-03T00:34:43;99233.97;;;0.10;100.00
53908;BME280;40469;47.998;7.794;2023-03-03T00:37:26;99231.34;;;0.08;100.00
53908;BME280;40469;47.998;7.794;2023-03-03T00:39:52;99232.13;;;0.06;100.00
53908;BME280;40469;47.998;7.794;2023-03-03T00:42:18;99229.56;;;0.06;100.00
53908;BME280;40469;47.998;7.794;2023-03-03T00:44:44;99237.78;;;-0.03;100.00
53908;BME280;40469;47.998;7.794;2023-03-03T00:47:13;99231.00;;;-0.01;100.00
53908;BME280;40469;47.998;7.794;2023-03-03T00:49:43;99239.59;;;-0.01;100.00
53908;BME280;40469;47.998;7.794;2023-03-03T00:52:11;99240.88;;;-0.12;100.00
53908;BME280;40469;47.998;7.794;2023-03-03T00:54:38;99241.81;;;-0.10;100.00
53908;BME280;40469;47.998;7.794;2023-03-03T00:57:04;99246.03;;;-0.12;100.00
53908;BME280;40469;47.998;7.794;2023-03-03T00:59:29;99249.13;;;-0.21;100.00
53908;BME280;40469;47.998;7.794;2023-03-03T01:01:54;99241.41;;;-0.21;100.00
53908;BME280;40469;47.998;7.794;2023-03-03T01:04:19;99241.41;;;-0.21;100.00
53908;BME280;40469;47.998;7.794;2023-03-03T01:06:44;99248.13;;;-0.24;100.00
53908;BME280;40469;47.998;7.794;2023-03-03T01:09:11;99248.81;;;-0.28;100.00
53908;BME280;40469;47.998;7.794;2023-03-03T01:11:37;99248.94;;;-0.25;100.00
53908;BME280;40469;47.998;7.794;2023-03-03T01:14:02;99243.75;;;-0.27;100.00
53908;BME280;40469;47.998;7.794;2023-03-03T01:16:27;99241.09;;;-0.28;100.00
53908;BME280;40469;47.998;7.794;2023-03-03T01:18:52;99242.06;;;-0.26;100.00
53908;BME280;40469;47.998;7.794;2023-03-03T01:21:18;99243.88;;;-0.24;100.00
53908;BME280;40469;47.998;7.794;2023-03-03T01:23:43;99240.44;;;-0.24;100.00
53908;BME280;40469;47.998;7.794;2023-03-03T01:26:08;99244.72;;;-0.23;100.00
53908;BME280;40469;47.998;7.794;2023-03-03T01:28:34;99238.78;;;-0.22;100.00
53908;BME280;40469;47.998;7.794;2023-03-03T01:31:00;99240.66;;;-0.18;100.00
53908;BME280;40469;47.998;7.794;2023-03-03T01:33:26;99231.97;;;-0.22;100.00
53908;BME280;40469;47.998;7.794;2023-03-03T01:35:51;99234.53;;;-0.22;100.00
53908;BME280;40469;47.998;7.794;2023-03-03T01:38:16;99230.31;;;-0.20;100.00
53908;BME280;40469;47.998;7.794;2023-03-03T01:40:42;99233.94;;;-0.14;100.00
53908;BME280;40469;47.998;7.794;2023-03-03T01:43:07;99234.06;;;-0.11;100.00
53908;BME280;40469;47.998;7.794;2023-03-03T01:48:12;99236.03;;;-0.04;100.00
53908;BME280;40469;47.998;7.794;2023-03-03T01:50:51;99234.50;;;0.01;100.00
53908;BME280;40469;47.998;7.794;2023-03-03T01:53:20;99236.16;;;-0.01;100.00
53908;BME280;40469;47.998;7.794;2023-03-03T01:55:46;99231.06;;;0.01;100.00
53908;BME280;40469;47.998;7.794;2023-03-03T01:58:16;99233.69;;;0.02;100.00
53908;BME280;40469;47.998;7.794;2023-03-03T02:00:43;99226.81;;;0.01;100.00
53908;BME280;40469;47.998;7.794;2023-03-03T02:03:10;99226.09;;;0.05;100.00
53908;BME280;40469;47.998;7.794;2023-03-03T02:05:35;99220.88;;;0.02;100.00
53908;BME280;40469;47.998;7.794;2023-03-03T02:08:01;99220.88;;;0.02;100.00
53908;BME280;40469;47.998;7.794;2023-03-03T02:10:27;99221.06;;;0.08;100.00
53908;BME280;40469;47.998;7.794;2023-03-03T02:12:54;99226.22;;;0.08;100.00
53908;BME280;40469;47.998;7.794;2023-03-03T02:15:27;99213.56;;;0.13;100.00
53908;BME280;40469;47.998;7.794;2023-03-03T02:17:53;99219.56;;;0.13;100.00
53908;BME280;40469;47.998;7.794;2023-03-03T02:25:30;99203.97;;;0.09;100.00
53908;BME280;40469;47.998;7.794;2023-03-03T02:27:57;99210.94;;;0.11;100.00
53908;BME280;40469;47.998;7.794;2023-03-03T02:30:24;99209.16;;;0.10;100.00
53908;BME280;40469;47.998;7.794;2023-03-03T02:32:49;99209.94;;;0.08;100.00
53908;BME280;40469;47.998;7.794;2023-03-03T02:35:34;99204.75;;;0.06;100.00
53908;BME280;40469;47.998;7.794;2023-03-03T02:38:20;99212.50;;;0.08;100.00
53908;BME280;40469;47.998;7.794;2023-03-03T02:40:52;99203.88;;;0.06;100.00
53908;BME280;40469;47.998;7.794;2023-03-03T02:43:21;99200.41;;;0.05;100.00
53908;BME280;40469;47.998;7.794;2023-03-03T02:45:48;99199.72;;;0.09;100.00
53908;BME280;40469;47.998;7.794;2023-03-03T02:48:14;99205.72;;;0.10;100.00
53908;BME280;40469;47.998;7.794;2023-03-03T02:50:39;99208.97;;;0.04;100.00
53908;BME280;40469;47.998;7.794;2023-03-03T02:53:04;99204.69;;;0.05;100.00
53908;BME280;40469;47.998;7.794;2023-03-03T02:55:29;99196.06;;;0.03;100.00
53908;BME280;40469;47.998;7.794;2023-03-03T02:57:54;99198.56;;;0.01;100.00
53908;BME280;40469;47.998;7.794;2023-03-03T03:00:20;99193.31;;;-0.02;100.00
53908;BME280;40469;47.998;7.794;2023-03-03T03:02:45;99196.84;;;0.00;100.00
53908;BME280;40469;47.998;7.794;2023-03-03T03:05:10;99199.13;;;-0.08;100.00
53908;BME280;40469;47.998;7.794;2023-03-03T03:07:35;99203.00;;;-0.19;100.00
53908;BME280;40469;47.998;7.794;2023-03-03T03:10:01;99196.56;;;-0.30;100.00
53908;BME280;40469;47.998;7.794;2023-03-03T03:12:26;99199.78;;;-0.36;100.00
53908;BME280;40469;47.998;7.794;2023-03-03T03:14:51;99202.63;;;-0.28;100.00
53908;BME280;40469;47.998;7.794;2023-03-03T03:17:16;99209.53;;;-0.27;100.00
53908;BME280;40469;47.998;7.794;2023-03-03T03:19:42;99207.59;;;-0.33;100.00
53908;BME280;40469;47.998;7.794;2023-03-03T03:22:07;99206.31;;;-0.44;100.00
53908;BME280;40469;47.998;7.794;2023-03-03T03:24:32;99205.50;;;-0.66;100.00
53908;BME280;40469;47.998;7.794;2023-03-03T03:26:57;99211.72;;;-0.82;100.00
53908;BME280;40469;47.998;7.794;2023-03-03T03:29:23;99202.97;;;-0.87;100.00
53908;BME280;40469;47.998;7.794;2023-03-03T03:31:48;99206.38;;;-0.88;100.00
53908;BME280;40469;47.998;7.794;2023-03-03T03:34:13;99220.41;;;-0.99;100.00
53908;BME280;40469;47.998;7.794;2023-03-03T03:36:38;99222.81;;;-1.04;100.00
53908;BME280;40469;47.998;7.794;2023-03-03T03:39:04;99223.47;;;-1.08;100.00
53908;BME280;40469;47.998;7.794;2023-03-03T03:41:30;99216.50;;;-1.12;100.00
53908;BME280;40469;47.998;7.794;2023-03-03T03:43:55;99217.63;;;-1.05;100.00
53908;BME280;40469;47.998;7.794;2023-03-03T03:46:20;99218.28;;;-0.88;100.00
53908;BME280;40469;47.998;7.794;2023-03-03T03:48:46;99214.47;;;-0.77;100.00
53908;BME280;40469;47.998;7.794;2023-03-03T03:51:11;99216.25;;;-0.74;100.00
53908;BME280;40469;47.998;7.794;2023-03-03T03:53:36;99220.72;;;-0.70;100.00
53908;BME280;40469;47.998;7.794;2023-03-03T03:56:02;99218.03;;;-0.73;100.00
53908;BME280;40469;47.998;7.794;2023-03-03T03:58:27;99219.88;;;-0.69;100.00
53908;BME280;40469;47.998;7.794;2023-03-03T04:00:52;99222.44;;;-0.69;100.00
53908;BME280;40469;47.998;7.794;2023-03-03T04:03:17;99226.66;;;-0.71;100.00
53908;BME280;40469;47.998;7.794;2023-03-03T04:05:43;99227.34;;;-0.75;100.00
53908;BME280;40469;47.998;7.794;2023-03-03T04:08:08;99227.28;;;-0.77;100.00
53908;BME280;40469;47.998;7.794;2023-03-03T04:10:33;99235.69;;;-0.81;100.00
53908;BME280;40469;47.998;7.794;2023-03-03T04:12:59;99238.25;;;-0.81;100.00
53908;BME280;40469;47.998;7.794;2023-03-03T04:15:24;99242.41;;;-0.83;100.00
53908;BME280;40469;47.998;7.794;2023-03-03T04:17:49;99240.34;;;-0.92;100.00
53908;BME280;40469;47.998;7.794;2023-03-03T04:20:15;99236.69;;;-0.99;100.00
53908;BME280;40469;47.998;7.794;2023-03-03T04:22:41;99240.84;;;-1.01;100.00
53908;BME280;40469;47.998;7.794;2023-03-03T04:25:06;99241.56;;;-1.05;100.00
53908;BME280;40469;47.998;7.794;2023-03-03T04:27:32;99244.19;;;-1.03;100.00
53908;BME280;40469;47.998;7.794;2023-03-03T04:29:58;99250.00;;;-1.07;100.00
53908;BME280;40469;47.998;7.794;2023-03-03T04:32:23;99250.00;;;-1.07;100.00
53908;BME280;40469;47.998;7.794;2023-03-03T04:34:48;99241.31;;;-1.11;100.00
53908;BME280;40469;47.998;7.794;2023-03-03T04:37:14;99249.88;;;-1.10;100.00
53908;BME280;40469;47.998;7.794;2023-03-03T04:39:39;99248.25;;;-1.08;100.00
53908;BME280;40469;47.998;7.794;2023-03-03T04:42:04;99241.41;;;-1.08;100.00
53908;BME280;40469;47.998;7.794;2023-03-03T04:44:29;99251.81;;;-1.05;100.00
53908;BME280;40469;47.998;7.794;2023-03-03T04:46:55;99240.91;;;-0.99;100.00
53908;BME280;40469;47.998;7.794;2023-03-03T04:49:20;99239.50;;;-0.92;100.00
53908;BME280;40469;47.998;7.794;2023-03-03T04:51:45;99234.63;;;-0.86;100.00
53908;BME280;40469;47.998;7.794;2023-03-03T04:54:10;99241.69;;;-0.81;100.00
53908;BME280;40469;47.998;7.794;2023-03-03T04:56:35;99237.69;;;-0.74;100.00
53908;BME280;40469;47.998;7.794;2023-03-03T04:59:01;99243.97;;;-0.66;100.00
53908;BME280;40469;47.998;7.794;2023-03-03T05:01:26;99245.09;;;-0.59;100.00
53908;BME280;40469;47.998;7.794;2023-03-03T05:03:51;99249.50;;;-0.55;100.00
53908;BME280;40469;47.998;7.794;2023-03-03T05:06:16;99252.19;;;-0.52;100.00
53908;BME280;40469;47.998;7.794;2023-03-03T05:08:43;99252.44;;;-0.46;100.00
53908;BME280;40469;47.998;7.794;2023-03-03T05:11:08;99259.38;;;-0.43;100.00
53908;BME280;40469;47.998;7.794;2023-03-03T05:13:33;99250.16;;;-0.38;100.00
53908;BME280;40469;47.998;7.794;2023-03-03T05:15:58;99254.66;;;-0.32;100.00
53908;BME280;40469;47.998;7.794;2023-03-03T05:18:24;99253.13;;;-0.27;100.00
53908;BME280;40469;47.998;7.794;2023-03-03T05:20:50;99249.00;;;-0.24;100.00
53908;BME280;40469;47.998;7.794;2023-03-03T05:23:16;99249.19;;;-0.19;100.00
53908;BME280;40469;47.998;7.794;2023-03-03T05:25:42;99238.91;;;-0.19;100.00
53908;BME280;40469;47.998;7.794;2023-03-03T05:28:08;99247.66;;;-0.14;100.00
53908;BME280;40469;47.998;7.794;2023-03-03T05:30:34;99245.38;;;-0.06;100.00
53908;BME280;40469;47.998;7.794;2023-03-03T05:32:59;99242.16;;;-0.01;100.00
53908;BME280;40469;47.998;7.794;2023-03-03T05:35:25;99251.81;;;0.07;100.00
53908;BME280;40469;47.998;7.794;2023-03-03T05:37:50;99248.50;;;0.09;100.00
53908;BME280;40469;47.998;7.794;2023-03-03T05:40:17;99258.06;;;0.13;100.00
53908;BME280;40469;47.998;7.794;2023-03-03T05:42:42;99256.34;;;0.14;100.00
53908;BME280;40469;47.998;7.794;2023-03-03T05:45:08;99262.44;;;0.16;100.00
53908;BME280;40469;47.998;7.794;2023-03-03T05:47:33;99260.75;;;0.16;100.00
53908;BME280;40469;47.998;7.794;2023-03-03T05:49:59;99256.59;;;0.20;100.00
53908;BME280;40469;47.998;7.794;2023-03-03T05:52:25;99267.00;;;0.25;100.00
53908;BME280;40469;47.998;7.794;2023-03-03T05:54:50;99262.91;;;0.28;100.00
53908;BME280;40469;47.998;7.794;2023-03-03T05:57:15;99260.41;;;0.31;100.00
53908;BME280;40469;47.998;7.794;2023-03-03T05:59:40;99262.44;;;0.40;100.00
53908;BME280;40469;47.998;7.794;2023-03-03T06:02:05;99265.06;;;0.42;100.00
53908;BME280;40469;47.998;7.794;2023-03-03T06:04:31;99266.75;;;0.41;100.00
53908;BME280;40469;47.998;7.794;2023-03-03T06:06:56;99273.63;;;0.42;100.00
53908;BME280;40469;47.998;7.794;2023-03-03T06:09:22;99285.00;;;0.49;100.00
53908;BME280;40469;47.998;7.794;2023-03-03T06:11:47;99275.50;;;0.46;100.00
53908;BME280;40469;47.998;7.794;2023-03-03T06:14:12;99274.72;;;0.49;100.00
53908;BME280;40469;47.998;7.794;2023-03-03T06:16:37;99279.75;;;0.46;100.00
53908;BME280;40469;47.998;7.794;2023-03-03T06:19:03;99271.97;;;0.43;100.00
53908;BME280;40469;47.998;7.794;2023-03-03T06:21:29;99277.59;;;0.32;100.00
53908;BME280;40469;47.998;7.794;2023-03-03T06:23:54;99284.38;;;0.30;100.00
53908;BME280;40469;47.998;7.794;2023-03-03T06:26:19;99287.56;;;0.25;100.00
53908;BME280;40469;47.998;7.794;2023-03-03T06:28:45;99294.25;;;0.20;100.00
53908;BME280;40469;47.998;7.794;2023-03-03T06:31:10;99290.91;;;0.22;100.00
53908;BME280;40469;47.998;7.794;2023-03-03T06:33:35;99289.19;;;0.23;100.00
53908;BME280;40469;47.998;7.794;2023-03-03T06:36:02;99291.69;;;0.20;100.00
53908;BME280;40469;47.998;7.794;2023-03-03T06:38:27;99294.28;;;0.21;100.00
53908;BME280;40469;47.998;7.794;2023-03-03T06:40:53;99297.81;;;0.23;100.00
53908;BME280;40469;47.998;7.794;2023-03-03T06:43:18;99294.34;;;0.23;100.00
53908;BME280;40469;47.998;7.794;2023-03-03T06:45:44;99309.06;;;0.27;100.00
53908;BME280;40469;47.998;7.794;2023-03-03T06:48:09;99310.78;;;0.28;100.00
53908;BME280;40469;47.998;7.794;2023-03-03T06:50:34;99314.19;;;0.27;100.00
53908;BME280;40469;47.998;7.794;2023-03-03T06:53:09;99314.25;;;0.28;100.00
53908;BME280;40469;47.998;7.794;2023-03-03T06:55:36;99316.63;;;0.24;100.00
53908;BME280;40469;47.998;7.794;2023-03-03T06:58:04;99315.78;;;0.23;100.00
53908;BME280;40469;47.998;7.794;2023-03-03T07:00:33;99319.16;;;0.22;100.00
53908;BME280;40469;47.998;7.794;2023-03-03T07:02:59;99318.44;;;0.26;100.00
53908;BME280;40469;47.998;7.794;2023-03-03T07:05:26;99322.56;;;0.23;100.00
53908;BME280;40469;47.998;7.794;2023-03-03T07:07:53;99320.06;;;0.24;100.00
53908;BME280;40469;47.998;7.794;2023-03-03T07:10:23;99328.94;;;0.32;100.00
53908;BME280;40469;47.998;7.794;2023-03-03T07:12:48;99326.38;;;0.32;100.00
53908;BME280;40469;47.998;7.794;2023-03-03T07:15:29;99331.66;;;0.37;100.00
53908;BME280;40469;47.998;7.794;2023-03-03T07:17:57;99337.03;;;0.43;100.00
53908;BME280;40469;47.998;7.794;2023-03-03T07:20:26;99335.56;;;0.50;100.00
53908;BME280;40469;47.998;7.794;2023-03-03T07:22:52;99334.00;;;0.53;100.00
53908;BME280;40469;47.998;7.794;2023-03-03T07:25:38;99337.59;;;0.59;100.00
53908;BME280;40469;47.998;7.794;2023-03-03T07:28:10;99341.22;;;0.64;100.00
53908;BME280;40469;47.998;7.794;2023-03-03T07:30:39;99344.72;;;0.66;100.00
53908;BME280;40469;47.998;7.794;2023-03-03T07:33:07;99348.25;;;0.69;100.00
53908;BME280;40469;47.998;7.794;2023-03-03T07:35:38;99348.25;;;0.69;100.00
53908;BME280;40469;47.998;7.794;2023-03-03T07:40:52;99349.84;;;0.66;100.00
53908;BME280;40469;47.998;7.794;2023-03-03T07:43:25;99355.06;;;0.67;100.00
53908;BME280;40469;47.998;7.794;2023-03-03T07:45:52;99359.34;;;0.68;100.00
53908;BME280;40469;47.998;7.794;2023-03-03T07:48:25;99357.00;;;0.74;100.00
53908;BME280;40469;47.998;7.794;2023-03-03T07:50:54;99351.22;;;0.80;100.00
53908;BME280;40469;47.998;7.794;2023-03-03T07:53:25;99365.03;;;0.84;100.00
53908;BME280;40469;47.998;7.794;2023-03-03T07:55:51;99364.06;;;0.80;100.00
53908;BME280;40469;47.998;7.794;2023-03-03T07:58:20;99369.38;;;0.85;100.00
53908;BME280;40469;47.998;7.794;2023-03-03T08:03:29;99379.00;;;0.90;100.00
53908;BME280;40469;47.998;7.794;2023-03-03T08:05:55;99378.03;;;0.87;100.00
53908;BME280;40469;47.998;7.794;2023-03-03T08:08:25;99381.66;;;0.93;100.00
53908;BME280;40469;47.998;7.794;2023-03-03T08:10:53;99386.84;;;0.95;100.00
53908;BME280;40469;47.998;7.794;2023-03-03T08:15:45;99386.03;;;0.96;100.00
53908;BME280;40469;47.998;7.794;2023-03-03T08:18:15;99385.38;;;1.02;100.00
53908;BME280;40469;47.998;7.794;2023-03-03T08:20:44;99383.91;;;1.08;100.00
53908;BME280;40469;47.998;7.794;2023-03-03T08:23:10;99377.34;;;1.17;100.00
53908;BME280;40469;47.998;7.794;2023-03-03T08:25:36;99379.25;;;1.22;100.00
53908;BME280;40469;47.998;7.794;2023-03-03T08:28:01;99380.09;;;1.23;100.00
53908;BME280;40469;47.998;7.794;2023-03-03T08:30:26;99377.41;;;1.20;100.00
53908;BME280;40469;47.998;7.794;2023-03-03T08:32:51;99385.56;;;1.32;100.00
53908;BME280;40469;47.998;7.794;2023-03-03T08:35:17;99376.34;;;1.39;100.00
53908;BME280;40469;47.998;7.794;2023-03-03T08:37:42;99380.06;;;1.47;100.00
53908;BME280;40469;47.998;7.794;2023-03-03T08:40:07;99378.59;;;1.55;100.00
53908;BME280;40469;47.998;7.794;2023-03-03T08:42:33;99372.88;;;1.64;100.00
53908;BME280;40469;47.998;7.794;2023-03-03T08:44:58;99372.22;;;1.69;100.00
53908;BME280;40469;47.998;7.794;2023-03-03T08:47:23;99377.44;;;1.73;100.00
53908;BME280;40469;47.998;7.794;2023-03-03T08:49:48;99386.34;;;1.82;100.00
53908;BME280;40469;47.998;7.794;2023-03-03T08:52:16;99383.78;;;1.82;100.00
53908;BME280;40469;47.998;7.794;2023-03-03T08:54:42;99387.13;;;1.80;100.00
53908;BME280;40469;47.998;7.794;2023-03-03T08:57:07;99385.63;;;1.86;100.00
53908;BME280;40469;47.998;7.794;2023-03-03T08:59:33;99386.81;;;1.96;100.00
53908;BME280;40469;47.998;7.794;2023-03-03T09:02:02;99382.63;;;2.00;100.00
53908;BME280;40469;47.998;7.794;2023-03-03T09:04:28;99386.91;;;2.01;100.00
53908;BME280;40469;47.998;7.794;2023-03-03T09:06:53;99390.41;;;2.03;100.00
53908;BME280;40469;47.998;7.794;2023-03-03T09:09:18;99389.31;;;1.95;100.00
53908;BME280;40469;47.998;7.794;2023-03-03T09:11:44;99381.66;;;1.96;100.00
53908;BME280;40469;47.998;7.794;2023-03-03T09:14:10;99378.28;;;1.99;100.00
53908;BME280;40469;47.998;7.794;2023-03-03T09:16:37;99379.50;;;2.10;100.00
53908;BME280;40469;47.998;7.794;2023-03-03T09:19:23;99387.56;;;2.21;100.00
53908;BME280;40469;47.998;7.794;2023-03-03T09:21:53;99392.13;;;2.31;100.00
53908;BME280;40469;47.998;7.794;2023-03-03T09:24:30;99389.75;;;2.37;100.00
53908;BME280;40469;47.998;7.794;2023-03-03T09:26:56;99389.91;;;2.42;100.00
53908;BME280;40469;47.998;7.794;2023-03-03T09:29:28;99390.97;;;2.50;100.00
53908;BME280;40469;47.998;7.794;2023-03-03T09:31:55;99384.34;;;2.58;100.00
53908;BME280;40469;47.998;7.794;2023-03-03T09:34:22;99378.56;;;2.65;100.00
53908;BME280;40469;47.998;7.794;2023-03-03T09:36:49;99385.53;;;2.70;100.00
53908;BME280;40469;47.998;7.794;2023-03-03T09:39:19;99385.97;;;2.85;100.00
53908;BME280;40469;47.998;7.794;2023-03-03T09:41:48;99382.38;;;2.80;100.00
53908;BME280;40469;47.998;7.794;2023-03-03T09:44:21;99386.09;;;2.90;100.00
53908;BME280;40469;47.998;7.794;2023-03-03T09:54:25;99385.63;;;3.04;100.00
53908;BME280;40469;47.998;7.794;2023-03-03T09:57:02;99381.28;;;3.02;100.00
53908;BME280;40469;47.998;7.794;2023-03-03T10:02:56;99384.22;;;3.16;100.00
53908;BME280;40469;47.998;7.794;2023-03-03T10:05:08;99386.97;;;3.22;100.00
53908;BME280;40469;47.998;7.794;2023-03-03T10:10:37;99383.13;;;3.39;100.00
53908;BME280;40469;47.998;7.794;2023-03-03T10:18:20;99388.13;;;3.68;100.00
53908;BME280;40469;47.998;7.794;2023-03-03T10:21:06;99393.63;;;3.82;100.00
53908;BME280;40469;47.998;7.794;2023-03-03T10:31:19;99392.75;;;4.18;100.00
53908;BME280;40469;47.998;7.794;2023-03-03T10:41:51;99394.44;;;4.55;100.00
53908;BME280;40469;47.998;7.794;2023-03-03T10:44:26;99389.94;;;4.47;100.00
53908;BME280;40469;47.998;7.794;2023-03-03T10:49:46;99394.97;;;4.82;100.00
53908;BME280;40469;47.998;7.794;2023-03-03T10:52:24;99394.19;;;4.86;100.00
53908;BME280;40469;47.998;7.794;2023-03-03T10:55:16;99385.06;;;5.03;100.00
53908;BME280;40469;47.998;7.794;2023-03-03T10:57:48;99387.47;;;4.96;100.00
53908;BME280;40469;47.998;7.794;2023-03-03T11:06:10;99391.16;;;5.56;100.00
53908;BME280;40469;47.998;7.794;2023-03-03T11:11:09;99392.78;;;5.50;100.00
53908;BME280;40469;47.998;7.794;2023-03-03T11:13:49;99381.94;;;5.72;100.00
53908;BME280;40469;47.998;7.794;2023-03-03T11:16:36;99373.50;;;5.83;100.00
53908;BME280;40469;47.998;7.794;2023-03-03T11:26:54;99371.59;;;6.26;100.00
53908;BME280;40469;47.998;7.794;2023-03-03T11:37:00;99367.53;;;7.22;100.00
53908;BME280;40469;47.998;7.794;2023-03-03T11:39:28;99362.88;;;6.90;100.00
53908;BME280;40469;47.998;7.794;2023-03-03T11:44:23;99361.69;;;6.65;100.00
53908;BME280;40469;47.998;7.794;2023-03-03T11:46:53;99364.13;;;6.50;100.00
53908;BME280;40469;47.998;7.794;2023-03-03T11:51:51;99361.41;;;6.42;100.00
53908;BME280;40469;47.998;7.794;2023-03-03T11:56:44;99352.81;;;6.44;100.00
53908;BME280;40469;47.998;7.794;2023-03-03T11:59:25;99350.06;;;6.35;100.00
53908;BME280;40469;47.998;7.794;2023-03-03T12:05:00;99352.50;;;6.93;100.00
53908;BME280;40469;47.998;7.794;2023-03-03T12:07:31;99347.22;;;6.84;100.00
53908;BME280;40469;47.998;7.794;2023-03-03T12:10:07;99348.75;;;6.68;100.00
53908;BME280;40469;47.998;7.794;2023-03-03T12:12:42;99351.22;;;6.57;100.00
53908;BME280;40469;47.998;7.794;2023-03-03T12:15:51;99351.44;;;6.73;100.00
53908;BME280;40469;47.998;7.794;2023-03-03T12:18:06;99349.53;;;6.61;100.00
53908;BME280;40469;47.998;7.794;2023-03-03T12:25:50;99330.66;;;6.71;100.00
53908;BME280;40469;47.998;7.794;2023-03-03T12:28:21;99330.81;;;6.88;100.00
53908;BME280;40469;47.998;7.794;2023-03-03T12:33:30;99329.81;;;6.75;100.00
53908;BME280;40469;47.998;7.794;2023-03-03T12:36:06;99328.06;;;6.73;100.00
53908;BME280;40469;47.998;7.794;2023-03-03T12:41:38;99322.25;;;6.94;100.00
53908;BME280;40469;47.998;7.794;2023-03-03T12:46:58;99318.75;;;6.90;100.00
53908;BME280;40469;47.998;7.794;2023-03-03T12:49:27;99305.03;;;7.05;100.00
53908;BME280;40469;47.998;7.794;2023-03-03T12:52:05;99308.34;;;6.92;100.00
53908;BME280;40469;47.998;7.794;2023-03-03T12:59:49;99301.69;;;7.15;100.00
53908;BME280;40469;47.998;7.794;2023-03-03T13:04:49;99311.88;;;6.95;100.00
53908;BME280;40469;47.998;7.794;2023-03-03T13:07:31;99299.78;;;7.00;100.00
53908;BME280;40469;47.998;7.794;2023-03-03T13:10:02;99304.75;;;7.74;100.00
53908;BME280;40469;47.998;7.794;2023-03-03T13:12:41;99304.31;;;8.43;100.00
53908;BME280;40469;47.998;7.794;2023-03-03T13:15:18;99300.03;;;8.52;100.00
53908;BME280;40469;47.998;7.794;2023-03-03T13:20:33;99300.81;;;8.41;100.00
53908;BME280;40469;47.998;7.794;2023-03-03T13:28:20;99297.31;;;8.37;100.00
53908;BME280;40469;47.998;7.794;2023-03-03T13:30:48;99307.66;;;8.22;100.00
53908;BME280;40469;47.998;7.794;2023-03-03T13:33:20;99310.25;;;8.17;100.00
53908;BME280;40469;47.998;7.794;2023-03-03T13:35:49;99299.84;;;8.23;100.00
53908;BME280;40469;47.998;7.794;2023-03-03T13:38:20;99300.75;;;8.27;100.00
53908;BME280;40469;47.998;7.794;2023-03-03T13:40:53;99300.72;;;8.25;100.00
53908;BME280;40469;47.998;7.794;2023-03-03T13:43:23;99298.00;;;8.01;100.00
53908;BME280;40469;47.998;7.794;2023-03-03T13:50:50;99296.88;;;7.63;100.00
53908;BME280;40469;47.998;7.794;2023-03-03T13:53:36;99289.91;;;7.56;100.00
53908;BME280;40469;47.998;7.794;2023-03-03T13:56:16;99295.09;;;7.54;100.00
53908;BME280;40469;47.998;7.794;2023-03-03T14:03:46;99276.75;;;7.37;100.00
53908;BME280;40469;47.998;7.794;2023-03-03T14:06:17;99280.13;;;7.24;100.00
53908;BME280;40469;47.998;7.794;2023-03-03T14:14:03;99268.03;;;7.26;100.00
53908;BME280;40469;47.998;7.794;2023-03-03T14:19:16;99267.94;;;7.17;100.00
53908;BME280;40469;47.998;7.794;2023-03-03T14:24:15;99269.03;;;7.44;100.00
53908;BME280;40469;47.998;7.794;2023-03-03T14:26:48;99274.16;;;7.33;100.00
53908;BME280;40469;47.998;7.794;2023-03-03T14:31:45;99260.34;;;7.45;100.00
53908;BME280;40469;47.998;7.794;2023-03-03T14:36:37;99268.16;;;7.45;100.00
53908;BME280;40469;47.998;7.794;2023-03-03T14:39:03;99269.06;;;7.51;100.00
53908;BME280;40469;47.998;7.794;2023-03-03T14:41:47;99268.97;;;7.37;100.00
53908;BME280;40469;47.998;7.794;2023-03-03T14:46:44;99266.38;;;7.34;100.00
53908;BME280;40469;47.998;7.794;2023-03-03T14:49:27;99269.84;;;7.36;100.00
53908;BME280;40469;47.998;7.794;2023-03-03T14:51:55;99265.66;;;7.55;100.00
53908;BME280;40469;47.998;7.794;2023-03-03T14:54:27;99263.16;;;7.68;100.00
53908;BME280;40469;47.998;7.794;2023-03-03T14:56:58;99266.41;;;7.42;100.00
53908;BME280;40469;47.998;7.794;2023-03-03T14:59:24;99272.59;;;7.56;100.00
53908;BME280;40469;47.998;7.794;2023-03-03T15:04:34;99252.56;;;7.46;100.00
53908;BME280;40469;47.998;7.794;2023-03-03T15:07:00;99259.66;;;7.64;100.00
53908;BME280;40469;47.998;7.794;2023-03-03T15:09:38;99250.94;;;7.57;100.00
53908;BME280;40469;47.998;7.794;2023-03-03T15:12:16;99255.25;;;7.54;100.00
53908;BME280;40469;47.998;7.794;2023-03-03T15:14:44;99257.03;;;7.66;100.00
53908;BME280;40469;47.998;7.794;2023-03-03T15:17:18;99254.38;;;7.55;100.00
53908;BME280;40469;47.998;7.794;2023-03-03T15:25:11;99254.53;;;7.78;100.00
53908;BME280;40469;47.998;7.794;2023-03-03T15:27:39;99252.81;;;7.82;100.00
53908;BME280;40469;47.998;7.794;2023-03-03T15:30:20;99255.34;;;7.71;100.00
53908;BME280;40469;47.998;7.794;2023-03-03T15:33:06;99249.25;;;7.63;100.00
53908;BME280;40469;47.998;7.794;2023-03-03T15:35:40;99249.25;;;7.61;100.00
53908;BME280;40469;47.998;7.794;2023-03-03T15:38:30;99254.41;;;7.59;100.00
53908;BME280;40469;47.998;7.794;2023-03-03T15:44:18;99256.03;;;7.42;100.00
53908;BME280;40469;47.998;7.794;2023-03-03T15:48:52;99253.47;;;7.47;100.00
53908;BME280;40469;47.998;7.794;2023-03-03T15:54:08;99251.53;;;7.21;100.00
53908;BME280;40469;47.998;7.794;2023-03-03T16:01:33;99251.38;;;7.02;100.00